VTK964 UNNT-URRP
Flight info
| Callsign | VTK964 |
|---|---|
| Flight time | N/A |
| Altitude | 370 |
| Route | OGAMA A308 OSNAB G825 DORON A487 OZGEL L158 ABALI T763 GITEK T764 MAKEM P135 KR G900 OBABI/F400 G900 ST G128 MOR/F410 A808 DORIR |
| Aircraft | B773/M-URKK/S |
Departure
| Time | N/A |
|---|---|
| Airport | Novosibirsk Tolmachevo Airport (UNNT) |
Arrival
| Time | 2026-05-01 10:56 |
|---|---|
| Airport | Platov International Airport (URRP) |
| Time | Latitude | Longitude | Altitude | Speed | Heading |
|---|---|---|---|---|---|
| 2026-05-01 07:23 | 55.67368 | 77.43574 | 37962 ft | 436 kts | 268° |
| 2026-05-01 07:24 | 55.67464 | 77.27443 | 37956 ft | 437 kts | 268° |
| 2026-05-01 07:24 | 55.67517 | 77.16676 | 37956 ft | 437 kts | 268° |
| 2026-05-01 07:25 | 55.67559 | 77.05978 | 37947 ft | 437 kts | 268° |
| 2026-05-01 07:25 | 55.67593 | 76.95211 | 37940 ft | 437 kts | 268° |
| 2026-05-01 07:26 | 55.67618 | 76.84439 | 37940 ft | 437 kts | 268° |
| 2026-05-01 07:26 | 55.67633 | 76.73664 | 37939 ft | 437 kts | 268° |
| 2026-05-01 07:27 | 55.67638 | 76.62968 | 37933 ft | 437 kts | 267° |
| 2026-05-01 07:27 | 55.67635 | 76.52203 | 37928 ft | 437 kts | 267° |
| 2026-05-01 07:28 | 55.67621 | 76.41416 | 37930 ft | 437 kts | 267° |
| 2026-05-01 07:28 | 55.67599 | 76.30639 | 37919 ft | 438 kts | 267° |
| 2026-05-01 07:29 | 55.67567 | 76.19933 | 37917 ft | 438 kts | 267° |
| 2026-05-01 07:29 | 55.67526 | 76.09153 | 37914 ft | 438 kts | 267° |
| 2026-05-01 07:30 | 55.67475 | 75.98361 | 37909 ft | 438 kts | 266° |
| 2026-05-01 07:30 | 55.67414 | 75.87570 | 37907 ft | 438 kts | 266° |
| 2026-05-01 07:31 | 55.67345 | 75.76845 | 37905 ft | 438 kts | 266° |
| 2026-05-01 07:32 | 55.66975 | 75.49864 | 37895 ft | 438 kts | 264° |
| 2026-05-01 07:33 | 55.66428 | 75.33785 | 37892 ft | 438 kts | 264° |
| 2026-05-01 07:33 | 55.65907 | 75.17635 | 37887 ft | 438 kts | 264° |
| 2026-05-01 07:34 | 55.65378 | 75.01491 | 37884 ft | 438 kts | 264° |
| 2026-05-01 07:35 | 55.65011 | 74.90726 | 37880 ft | 438 kts | 263° |
| 2026-05-01 07:35 | 55.64637 | 74.80047 | 37875 ft | 438 kts | 263° |
| 2026-05-01 07:36 | 55.64251 | 74.69285 | 37871 ft | 438 kts | 263° |
| 2026-05-01 07:36 | 55.63857 | 74.58530 | 37868 ft | 438 kts | 263° |
| 2026-05-01 07:37 | 55.63251 | 74.42480 | 37861 ft | 438 kts | 263° |
| 2026-05-01 07:37 | 55.62834 | 74.31738 | 37860 ft | 438 kts | 263° |
| 2026-05-01 07:38 | 55.62407 | 74.20992 | 37852 ft | 438 kts | 263° |
| 2026-05-01 07:39 | 55.61825 | 74.06691 | 37832 ft | 438 kts | 262° |
| 2026-05-01 07:39 | 55.61074 | 73.88838 | 37840 ft | 438 kts | 262° |
| 2026-05-01 07:40 | 55.60612 | 73.78092 | 37845 ft | 438 kts | 262° |
| 2026-05-01 07:40 | 55.60175 | 73.67350 | 37840 ft | 439 kts | 265° |
| 2026-05-01 07:41 | 55.60393 | 73.58343 | 37841 ft | 443 kts | 272° |
| 2026-05-01 07:42 | 55.61582 | 73.40338 | 37823 ft | 444 kts | 272° |
| 2026-05-01 07:42 | 55.62150 | 73.31324 | 37825 ft | 444 kts | 272° |
| 2026-05-01 07:43 | 55.62818 | 73.20474 | 37823 ft | 444 kts | 272° |
| 2026-05-01 07:43 | 55.63443 | 73.02430 | 37812 ft | 440 kts | 265° |
| 2026-05-01 07:44 | 55.63321 | 72.82589 | 37808 ft | 441 kts | 265° |
| 2026-05-01 07:45 | 55.63258 | 72.71734 | 37801 ft | 441 kts | 265° |
| 2026-05-01 07:45 | 55.63192 | 72.60884 | 37792 ft | 441 kts | 265° |
| 2026-05-01 07:46 | 55.63119 | 72.50028 | 37782 ft | 441 kts | 265° |
| 2026-05-01 07:47 | 55.62990 | 72.33807 | 37776 ft | 441 kts | 265° |
| 2026-05-01 07:47 | 55.62892 | 72.22955 | 37768 ft | 441 kts | 265° |
| 2026-05-01 07:48 | 55.62726 | 72.06653 | 37760 ft | 442 kts | 264° |
| 2026-05-01 07:48 | 55.62605 | 71.95858 | 37757 ft | 442 kts | 264° |
| 2026-05-01 07:49 | 55.62403 | 71.79567 | 37747 ft | 442 kts | 264° |
| 2026-05-01 07:50 | 55.62257 | 71.68701 | 37742 ft | 442 kts | 264° |
| 2026-05-01 07:50 | 55.62021 | 71.52479 | 37738 ft | 442 kts | 264° |
| 2026-05-01 07:51 | 55.61851 | 71.41619 | 37720 ft | 442 kts | 264° |
| 2026-05-01 07:52 | 55.61579 | 71.25297 | 37711 ft | 442 kts | 263° |
| 2026-05-01 07:52 | 55.61386 | 71.14419 | 37718 ft | 442 kts | 263° |
| 2026-05-01 07:53 | 55.61084 | 70.98175 | 37712 ft | 443 kts | 263° |
| 2026-05-01 07:53 | 55.60871 | 70.87279 | 37704 ft | 443 kts | 263° |
| 2026-05-01 07:55 | 55.60295 | 70.60020 | 37694 ft | 444 kts | 263° |
| 2026-05-01 07:56 | 55.59659 | 70.32794 | 37689 ft | 445 kts | 262° |
| 2026-05-01 07:57 | 55.59247 | 70.16393 | 37697 ft | 445 kts | 262° |
| 2026-05-01 07:58 | 55.58664 | 69.94586 | 37694 ft | 446 kts | 262° |
| 2026-05-01 07:59 | 55.58040 | 69.72664 | 37687 ft | 447 kts | 262° |
| 2026-05-01 08:00 | 55.57032 | 69.39846 | 37695 ft | 447 kts | 262° |
| 2026-05-01 08:01 | 55.56318 | 69.17984 | 37696 ft | 448 kts | 262° |
| 2026-05-01 08:02 | 55.56102 | 69.01460 | 37691 ft | 449 kts | 264° |
| 2026-05-01 08:03 | 55.55935 | 68.84902 | 37710 ft | 449 kts | 263° |
| 2026-05-01 08:03 | 55.55702 | 68.68428 | 37698 ft | 450 kts | 263° |
| 2026-05-01 08:04 | 55.55350 | 68.46350 | 37726 ft | 449 kts | 263° |
| 2026-05-01 08:05 | 55.55062 | 68.29866 | 37712 ft | 450 kts | 263° |
| 2026-05-01 08:06 | 55.54753 | 68.13309 | 37717 ft | 450 kts | 262° |
| 2026-05-01 08:07 | 55.52907 | 67.91775 | 37728 ft | 440 kts | 249° |
| 2026-05-01 08:08 | 55.50332 | 67.76266 | 37719 ft | 441 kts | 249° |
| 2026-05-01 08:09 | 55.46887 | 67.55481 | 37719 ft | 442 kts | 249° |
| 2026-05-01 08:09 | 55.45158 | 67.45092 | 37722 ft | 442 kts | 249° |
| 2026-05-01 08:10 | 55.41685 | 67.24403 | 37715 ft | 442 kts | 249° |
| 2026-05-01 08:11 | 55.38161 | 67.03662 | 37717 ft | 443 kts | 248° |
| 2026-05-01 08:12 | 55.35500 | 66.88160 | 37716 ft | 444 kts | 248° |
| 2026-05-01 08:13 | 55.32803 | 66.72588 | 37715 ft | 444 kts | 248° |
| 2026-05-01 08:13 | 55.30083 | 66.57014 | 37717 ft | 445 kts | 248° |
| 2026-05-01 08:14 | 55.28272 | 66.46718 | 37714 ft | 445 kts | 248° |
| 2026-05-01 08:14 | 55.26436 | 66.36338 | 37716 ft | 445 kts | 248° |
| 2026-05-01 08:15 | 55.23664 | 66.20784 | 37714 ft | 446 kts | 247° |
| 2026-05-01 08:16 | 55.21805 | 66.10421 | 37711 ft | 445 kts | 247° |
| 2026-05-01 08:16 | 55.19951 | 66.00149 | 37711 ft | 446 kts | 247° |
| 2026-05-01 08:17 | 55.18074 | 65.89804 | 37714 ft | 446 kts | 247° |
| 2026-05-01 08:17 | 55.16186 | 65.79442 | 37715 ft | 447 kts | 247° |
| 2026-05-01 08:18 | 55.14281 | 65.69101 | 37721 ft | 447 kts | 246° |
| 2026-05-01 08:19 | 55.10367 | 65.48537 | 37715 ft | 448 kts | 246° |
| 2026-05-01 08:19 | 55.08394 | 65.38232 | 37720 ft | 448 kts | 246° |
| 2026-05-01 08:20 | 55.06411 | 65.27912 | 37706 ft | 448 kts | 246° |
| 2026-05-01 08:20 | 55.04421 | 65.17613 | 37711 ft | 448 kts | 246° |
| 2026-05-01 08:21 | 55.02434 | 65.07384 | 37719 ft | 448 kts | 246° |
| 2026-05-01 08:21 | 55.00425 | 64.97090 | 37726 ft | 449 kts | 246° |
| 2026-05-01 08:22 | 54.98408 | 64.86809 | 37718 ft | 449 kts | 246° |
| 2026-05-01 08:22 | 54.96399 | 64.76605 | 37726 ft | 449 kts | 246° |
| 2026-05-01 08:23 | 54.94369 | 64.66338 | 37723 ft | 449 kts | 246° |
| 2026-05-01 08:23 | 54.92328 | 64.56085 | 37722 ft | 449 kts | 246° |
| 2026-05-01 08:24 | 54.90276 | 64.45842 | 37722 ft | 449 kts | 246° |
| 2026-05-01 08:24 | 54.88231 | 64.35681 | 37717 ft | 448 kts | 246° |
| 2026-05-01 08:25 | 54.86167 | 64.25467 | 37726 ft | 448 kts | 246° |
| 2026-05-01 08:25 | 54.84094 | 64.15260 | 37722 ft | 449 kts | 246° |
| 2026-05-01 08:26 | 54.82023 | 64.05120 | 37718 ft | 449 kts | 245° |
| 2026-05-01 08:26 | 54.79933 | 63.94937 | 37724 ft | 448 kts | 245° |
| 2026-05-01 08:27 | 54.77833 | 63.84756 | 37727 ft | 449 kts | 245° |
| 2026-05-01 08:27 | 54.75725 | 63.74589 | 37721 ft | 449 kts | 245° |
| 2026-05-01 08:28 | 54.73621 | 63.64490 | 37724 ft | 449 kts | 245° |
| 2026-05-01 08:28 | 54.71492 | 63.54327 | 37731 ft | 449 kts | 245° |
| 2026-05-01 08:29 | 54.69357 | 63.44180 | 37737 ft | 449 kts | 245° |
| 2026-05-01 08:29 | 54.67209 | 63.34021 | 37721 ft | 450 kts | 245° |
| 2026-05-01 08:30 | 54.65054 | 63.23875 | 37731 ft | 450 kts | 245° |
| 2026-05-01 08:30 | 54.62904 | 63.13798 | 37734 ft | 451 kts | 245° |
| 2026-05-01 08:31 | 54.60737 | 63.03653 | 37738 ft | 451 kts | 245° |
| 2026-05-01 08:31 | 54.58562 | 62.93514 | 37733 ft | 451 kts | 245° |
| 2026-05-01 08:32 | 54.56378 | 62.83385 | 37741 ft | 451 kts | 245° |
| 2026-05-01 08:32 | 54.54198 | 62.73329 | 37743 ft | 451 kts | 245° |
| 2026-05-01 08:33 | 54.51994 | 62.63206 | 37743 ft | 452 kts | 245° |
| 2026-05-01 08:33 | 54.49782 | 62.53096 | 37745 ft | 452 kts | 245° |
| 2026-05-01 08:34 | 54.47559 | 62.42980 | 37737 ft | 452 kts | 245° |
| 2026-05-01 08:34 | 54.45429 | 62.32885 | 37744 ft | 454 kts | 249° |
| 2026-05-01 08:35 | 54.44125 | 62.22198 | 37759 ft | 459 kts | 256° |
| 2026-05-01 08:35 | 54.43181 | 62.11345 | 37752 ft | 460 kts | 256° |
| 2026-05-01 08:36 | 54.42195 | 62.00499 | 37768 ft | 459 kts | 256° |
| 2026-05-01 08:36 | 54.41186 | 61.89741 | 37786 ft | 460 kts | 256° |
| 2026-05-01 08:37 | 54.40153 | 61.78907 | 37773 ft | 459 kts | 256° |
| 2026-05-01 08:37 | 54.39115 | 61.68092 | 37796 ft | 459 kts | 256° |
| 2026-05-01 08:38 | 54.38070 | 61.57300 | 37804 ft | 459 kts | 256° |
| 2026-05-01 08:38 | 54.37022 | 61.46574 | 37813 ft | 459 kts | 256° |
| 2026-05-01 08:39 | 54.35958 | 61.35783 | 37824 ft | 459 kts | 256° |
| 2026-05-01 08:39 | 54.34884 | 61.24998 | 37824 ft | 459 kts | 256° |
| 2026-05-01 08:40 | 54.33262 | 61.08903 | 37831 ft | 459 kts | 255° |
| 2026-05-01 08:40 | 54.32165 | 60.98139 | 37834 ft | 459 kts | 255° |
| 2026-05-01 08:41 | 54.31057 | 60.87376 | 37840 ft | 459 kts | 255° |
| 2026-05-01 08:41 | 54.29940 | 60.76616 | 37846 ft | 459 kts | 255° |
| 2026-05-01 08:42 | 54.28814 | 60.65865 | 37844 ft | 459 kts | 255° |
| 2026-05-01 08:42 | 54.27685 | 60.55188 | 37858 ft | 459 kts | 255° |
| 2026-05-01 08:43 | 54.26540 | 60.44448 | 37832 ft | 459 kts | 255° |
| 2026-05-01 08:43 | 54.25385 | 60.33717 | 37860 ft | 459 kts | 255° |
| 2026-05-01 08:44 | 54.24221 | 60.22991 | 37869 ft | 459 kts | 255° |
| 2026-05-01 08:44 | 54.23055 | 60.12337 | 37857 ft | 459 kts | 255° |
| 2026-05-01 08:45 | 54.21871 | 60.01619 | 37879 ft | 459 kts | 255° |
| 2026-05-01 08:45 | 54.20678 | 59.90906 | 37866 ft | 459 kts | 255° |
| 2026-05-01 08:46 | 54.19476 | 59.80184 | 37864 ft | 459 kts | 255° |
| 2026-05-01 08:46 | 54.18271 | 59.69551 | 37880 ft | 459 kts | 255° |
| 2026-05-01 08:47 | 54.17046 | 59.58846 | 37878 ft | 459 kts | 255° |
| 2026-05-01 08:47 | 54.15813 | 59.48148 | 37883 ft | 459 kts | 255° |
| 2026-05-01 08:48 | 54.14573 | 59.37471 | 37890 ft | 459 kts | 255° |
| 2026-05-01 08:48 | 54.13323 | 59.26789 | 37889 ft | 459 kts | 255° |
| 2026-05-01 08:49 | 54.12072 | 59.16185 | 37889 ft | 459 kts | 255° |
| 2026-05-01 08:49 | 54.10803 | 59.05518 | 37887 ft | 459 kts | 255° |
| 2026-05-01 08:50 | 54.09526 | 58.94869 | 37897 ft | 459 kts | 255° |
| 2026-05-01 08:50 | 54.08239 | 58.84224 | 37893 ft | 459 kts | 255° |
| 2026-05-01 08:51 | 54.06952 | 58.73657 | 37902 ft | 459 kts | 255° |
| 2026-05-01 08:51 | 54.05648 | 58.63027 | 37896 ft | 459 kts | 255° |
| 2026-05-01 08:52 | 54.04336 | 58.52411 | 37898 ft | 458 kts | 255° |
| 2026-05-01 08:52 | 54.03027 | 58.41882 | 37900 ft | 458 kts | 255° |
| 2026-05-01 08:53 | 54.01724 | 58.31282 | 37879 ft | 458 kts | 255° |
| 2026-05-01 08:53 | 54.00419 | 58.20694 | 37892 ft | 458 kts | 255° |
| 2026-05-01 08:54 | 53.99103 | 58.10112 | 37915 ft | 457 kts | 255° |
| 2026-05-01 08:54 | 53.97788 | 57.99620 | 37891 ft | 457 kts | 255° |
| 2026-05-01 08:55 | 53.96455 | 57.89080 | 37900 ft | 457 kts | 254° |
| 2026-05-01 08:55 | 53.95111 | 57.78530 | 37896 ft | 457 kts | 254° |
| 2026-05-01 08:56 | 53.93759 | 57.67996 | 37898 ft | 457 kts | 254° |
| 2026-05-01 08:56 | 53.92405 | 57.57517 | 37906 ft | 458 kts | 254° |
| 2026-05-01 08:57 | 53.91033 | 57.46977 | 37909 ft | 458 kts | 254° |
| 2026-05-01 08:57 | 53.89652 | 57.36438 | 37900 ft | 458 kts | 254° |
| 2026-05-01 08:58 | 53.88260 | 57.25905 | 37900 ft | 458 kts | 254° |
| 2026-05-01 08:58 | 53.86860 | 57.15436 | 37898 ft | 458 kts | 254° |
| 2026-05-01 08:59 | 53.85443 | 57.04912 | 37906 ft | 459 kts | 254° |
| 2026-05-01 08:59 | 53.84019 | 56.94387 | 37918 ft | 458 kts | 254° |
| 2026-05-01 09:00 | 53.82585 | 56.83863 | 37909 ft | 459 kts | 254° |
| 2026-05-01 09:00 | 53.81141 | 56.73351 | 37910 ft | 459 kts | 254° |
| 2026-05-01 09:01 | 53.79697 | 56.62915 | 37909 ft | 459 kts | 253° |
| 2026-05-01 09:01 | 53.78238 | 56.52419 | 37915 ft | 458 kts | 253° |
| 2026-05-01 09:02 | 53.76771 | 56.41942 | 37919 ft | 458 kts | 253° |
| 2026-05-01 09:02 | 53.75294 | 56.31463 | 37914 ft | 458 kts | 253° |
| 2026-05-01 09:03 | 53.73819 | 56.21079 | 37919 ft | 458 kts | 253° |
| 2026-05-01 09:03 | 53.72326 | 56.10632 | 37916 ft | 458 kts | 253° |
| 2026-05-01 09:04 | 53.70824 | 56.00195 | 37925 ft | 457 kts | 253° |
| 2026-05-01 09:04 | 53.69313 | 55.89762 | 37934 ft | 457 kts | 253° |
| 2026-05-01 09:05 | 53.67806 | 55.79411 | 37930 ft | 458 kts | 253° |
| 2026-05-01 09:05 | 53.66277 | 55.68998 | 37927 ft | 458 kts | 253° |
| 2026-05-01 09:06 | 53.64736 | 55.58588 | 37934 ft | 457 kts | 253° |
| 2026-05-01 09:06 | 53.63187 | 55.48196 | 37934 ft | 458 kts | 253° |
| 2026-05-01 09:07 | 53.61641 | 55.37876 | 37931 ft | 458 kts | 253° |
| 2026-05-01 09:07 | 53.60075 | 55.27481 | 37936 ft | 458 kts | 253° |
| 2026-05-01 09:08 | 53.58501 | 55.17102 | 37940 ft | 458 kts | 253° |
| 2026-05-01 09:08 | 53.56916 | 55.06725 | 37943 ft | 458 kts | 253° |
| 2026-05-01 09:09 | 53.55333 | 54.96424 | 37942 ft | 458 kts | 253° |
| 2026-05-01 09:09 | 53.53731 | 54.86061 | 37943 ft | 458 kts | 252° |
| 2026-05-01 09:10 | 53.52120 | 54.75713 | 37938 ft | 458 kts | 252° |
| 2026-05-01 09:10 | 53.50498 | 54.65351 | 37945 ft | 458 kts | 252° |
| 2026-05-01 09:11 | 53.48869 | 54.55011 | 37940 ft | 458 kts | 252° |
| 2026-05-01 09:11 | 53.47241 | 54.44745 | 37958 ft | 458 kts | 252° |
| 2026-05-01 09:12 | 53.45593 | 54.34414 | 37945 ft | 458 kts | 252° |
| 2026-05-01 09:12 | 53.43937 | 54.24098 | 37948 ft | 458 kts | 252° |
| 2026-05-01 09:13 | 53.42283 | 54.13852 | 37953 ft | 458 kts | 252° |
| 2026-05-01 09:13 | 53.40608 | 54.03547 | 37960 ft | 458 kts | 252° |
| 2026-05-01 09:14 | 53.38926 | 53.93253 | 37954 ft | 458 kts | 252° |
| 2026-05-01 09:14 | 53.37237 | 53.82970 | 37957 ft | 458 kts | 252° |
| 2026-05-01 09:15 | 53.35507 | 53.72795 | 37962 ft | 457 kts | 251° |
| 2026-05-01 09:15 | 53.33556 | 53.62669 | 37967 ft | 457 kts | 250° |
| 2026-05-01 09:16 | 53.31566 | 53.52571 | 37969 ft | 457 kts | 250° |
| 2026-05-01 09:17 | 53.28609 | 53.37414 | 37968 ft | 457 kts | 250° |
| 2026-05-01 09:17 | 53.25669 | 53.22344 | 37972 ft | 457 kts | 250° |
| 2026-05-01 09:18 | 53.22696 | 53.07221 | 37974 ft | 457 kts | 250° |
| 2026-05-01 09:19 | 53.19716 | 52.92191 | 37976 ft | 457 kts | 250° |
| 2026-05-01 09:20 | 53.16704 | 52.77113 | 37967 ft | 457 kts | 250° |
| 2026-05-01 09:21 | 53.12659 | 52.57046 | 37967 ft | 457 kts | 250° |
| 2026-05-01 09:21 | 53.09615 | 52.42080 | 37969 ft | 457 kts | 250° |
| 2026-05-01 09:22 | 53.05513 | 52.22085 | 37965 ft | 457 kts | 250° |
| 2026-05-01 09:23 | 53.02431 | 52.07179 | 37964 ft | 457 kts | 250° |
| 2026-05-01 09:24 | 52.99309 | 51.92219 | 37968 ft | 457 kts | 250° |
| 2026-05-01 09:25 | 52.95130 | 51.72377 | 37972 ft | 457 kts | 249° |
| 2026-05-01 09:26 | 52.91966 | 51.57466 | 37960 ft | 457 kts | 249° |
| 2026-05-01 09:26 | 52.88780 | 51.42564 | 37972 ft | 458 kts | 249° |
| 2026-05-01 09:27 | 52.85591 | 51.27755 | 37977 ft | 458 kts | 249° |
| 2026-05-01 09:28 | 52.83444 | 51.17846 | 37978 ft | 458 kts | 249° |
| 2026-05-01 09:28 | 52.81288 | 51.07939 | 37978 ft | 458 kts | 249° |
| 2026-05-01 09:29 | 52.78042 | 50.93118 | 37981 ft | 457 kts | 249° |
| 2026-05-01 09:30 | 52.74792 | 50.78384 | 37981 ft | 457 kts | 249° |
| 2026-05-01 09:30 | 52.71515 | 50.63619 | 37983 ft | 457 kts | 249° |
| 2026-05-01 09:31 | 52.69334 | 50.53856 | 37986 ft | 457 kts | 249° |
| 2026-05-01 09:32 | 52.66014 | 50.39130 | 37997 ft | 457 kts | 249° |
| 2026-05-01 09:32 | 52.62675 | 50.24417 | 37998 ft | 457 kts | 249° |
| 2026-05-01 09:33 | 52.60440 | 50.14619 | 37990 ft | 457 kts | 249° |
| 2026-05-01 09:34 | 52.57090 | 50.00008 | 37999 ft | 457 kts | 249° |
| 2026-05-01 09:34 | 52.53712 | 49.85371 | 38010 ft | 457 kts | 249° |
| 2026-05-01 09:35 | 52.50322 | 49.70760 | 38017 ft | 456 kts | 249° |
| 2026-05-01 09:36 | 52.48070 | 49.61106 | 38011 ft | 456 kts | 248° |
| 2026-05-01 09:36 | 52.45798 | 49.51406 | 38017 ft | 455 kts | 248° |
| 2026-05-01 09:37 | 52.43520 | 49.41728 | 38021 ft | 455 kts | 248° |
| 2026-05-01 09:37 | 52.40106 | 49.27304 | 38023 ft | 454 kts | 248° |
| 2026-05-01 09:38 | 52.36668 | 49.12868 | 38032 ft | 454 kts | 248° |
| 2026-05-01 09:39 | 52.33205 | 48.98468 | 38041 ft | 453 kts | 248° |
| 2026-05-01 09:39 | 52.30888 | 48.88885 | 38037 ft | 453 kts | 248° |
| 2026-05-01 09:40 | 52.27418 | 48.74597 | 38039 ft | 453 kts | 248° |
| 2026-05-01 09:41 | 52.25082 | 48.65033 | 38041 ft | 453 kts | 248° |
| 2026-05-01 09:41 | 52.21568 | 48.50718 | 38041 ft | 453 kts | 248° |
| 2026-05-01 09:42 | 52.19227 | 48.41236 | 38041 ft | 454 kts | 248° |
| 2026-05-01 09:43 | 52.14491 | 48.22161 | 38046 ft | 454 kts | 248° |
| 2026-05-01 09:43 | 52.12556 | 48.12377 | 38051 ft | 455 kts | 253° |
| 2026-05-01 09:44 | 52.10034 | 47.97553 | 38046 ft | 455 kts | 253° |
| 2026-05-01 09:45 | 52.08319 | 47.87646 | 38046 ft | 455 kts | 253° |
| 2026-05-01 09:45 | 52.05720 | 47.72802 | 38054 ft | 455 kts | 253° |
| 2026-05-01 09:46 | 52.03989 | 47.62975 | 38046 ft | 455 kts | 253° |
| 2026-05-01 09:46 | 52.02238 | 47.53100 | 38051 ft | 455 kts | 253° |
| 2026-05-01 09:47 | 52.00475 | 47.43229 | 38054 ft | 455 kts | 253° |
| 2026-05-01 09:47 | 51.98705 | 47.33361 | 38051 ft | 455 kts | 253° |
| 2026-05-01 09:48 | 51.96943 | 47.23586 | 38051 ft | 455 kts | 253° |
| 2026-05-01 09:48 | 51.95159 | 47.13732 | 38055 ft | 455 kts | 253° |
| 2026-05-01 09:49 | 51.93367 | 47.03895 | 38055 ft | 455 kts | 253° |
| 2026-05-01 09:49 | 51.91568 | 46.94072 | 38053 ft | 455 kts | 253° |
| 2026-05-01 09:50 | 51.89774 | 46.84314 | 38050 ft | 455 kts | 253° |
| 2026-05-01 09:50 | 51.87959 | 46.74508 | 38059 ft | 455 kts | 253° |
| 2026-05-01 09:51 | 51.86136 | 46.64710 | 38063 ft | 455 kts | 252° |
| 2026-05-01 09:51 | 51.84308 | 46.54920 | 38075 ft | 454 kts | 252° |
| 2026-05-01 09:52 | 51.82368 | 46.45278 | 38080 ft | 453 kts | 245° |
| 2026-05-01 09:52 | 51.79006 | 46.36699 | 38102 ft | 455 kts | 231° |
| 2026-05-01 09:53 | 51.74416 | 46.29655 | 38108 ft | 456 kts | 222° |
| 2026-05-01 09:53 | 51.69566 | 46.23041 | 38103 ft | 457 kts | 222° |
| 2026-05-01 09:54 | 51.64744 | 46.16375 | 38101 ft | 456 kts | 222° |
| 2026-05-01 09:54 | 51.59943 | 46.09693 | 38100 ft | 456 kts | 222° |
| 2026-05-01 09:55 | 51.54845 | 46.03729 | 38101 ft | 458 kts | 213° |
| 2026-05-01 09:55 | 51.49146 | 45.99080 | 38090 ft | 460 kts | 207° |
| 2026-05-01 09:56 | 51.43354 | 45.94730 | 38079 ft | 460 kts | 207° |
| 2026-05-01 09:56 | 51.37576 | 45.90371 | 38071 ft | 459 kts | 208° |
| 2026-05-01 09:57 | 51.31841 | 45.86029 | 38071 ft | 458 kts | 208° |
| 2026-05-01 09:57 | 51.26082 | 45.81673 | 38074 ft | 458 kts | 208° |
| 2026-05-01 09:58 | 51.20319 | 45.77327 | 38074 ft | 458 kts | 208° |
| 2026-05-01 09:58 | 51.14562 | 45.72998 | 38072 ft | 457 kts | 208° |
| 2026-05-01 09:59 | 51.08807 | 45.68683 | 38075 ft | 457 kts | 208° |
| 2026-05-01 09:59 | 51.03207 | 45.64133 | 38078 ft | 454 kts | 214° |
| 2026-05-01 10:00 | 50.98115 | 45.58270 | 38098 ft | 452 kts | 220° |
| 2026-05-01 10:00 | 50.93194 | 45.52071 | 38089 ft | 452 kts | 220° |
| 2026-05-01 10:01 | 50.88250 | 45.45920 | 38096 ft | 452 kts | 220° |
| 2026-05-01 10:01 | 50.83286 | 45.39932 | 38096 ft | 452 kts | 218° |
| 2026-05-01 10:02 | 50.78200 | 45.34078 | 38094 ft | 452 kts | 218° |
| 2026-05-01 10:02 | 50.73116 | 45.28252 | 38094 ft | 451 kts | 218° |
| 2026-05-01 10:03 | 50.68044 | 45.22419 | 38102 ft | 451 kts | 218° |
| 2026-05-01 10:03 | 50.63013 | 45.16631 | 38089 ft | 450 kts | 218° |
| 2026-05-01 10:04 | 50.57953 | 45.10822 | 38110 ft | 450 kts | 218° |
| 2026-05-01 10:04 | 50.52895 | 45.05031 | 38120 ft | 450 kts | 218° |
| 2026-05-01 10:05 | 50.47833 | 44.99251 | 38113 ft | 450 kts | 218° |
| 2026-05-01 10:05 | 50.42803 | 44.93525 | 38112 ft | 450 kts | 218° |
| 2026-05-01 10:06 | 50.37739 | 44.87775 | 38114 ft | 449 kts | 218° |
| 2026-05-01 10:06 | 50.32676 | 44.82042 | 38111 ft | 449 kts | 218° |
| 2026-05-01 10:07 | 50.27611 | 44.76323 | 38123 ft | 449 kts | 218° |
| 2026-05-01 10:07 | 50.22578 | 44.70653 | 38123 ft | 449 kts | 218° |
| 2026-05-01 10:08 | 50.14977 | 44.62121 | 38127 ft | 449 kts | 218° |
| 2026-05-01 10:09 | 50.09908 | 44.56449 | 38121 ft | 449 kts | 218° |
| 2026-05-01 10:09 | 50.04838 | 44.50792 | 38124 ft | 448 kts | 218° |
| 2026-05-01 10:10 | 49.99798 | 44.45183 | 38128 ft | 448 kts | 218° |
| 2026-05-01 10:10 | 49.92197 | 44.36752 | 38127 ft | 448 kts | 218° |
| 2026-05-01 10:11 | 49.87129 | 44.31148 | 38132 ft | 447 kts | 218° |
| 2026-05-01 10:11 | 49.82058 | 44.25557 | 38138 ft | 447 kts | 218° |
| 2026-05-01 10:12 | 49.77845 | 44.20921 | 38135 ft | 447 kts | 218° |
| 2026-05-01 10:13 | 49.69420 | 44.11683 | 38143 ft | 447 kts | 218° |
| 2026-05-01 10:13 | 49.64347 | 44.06139 | 38137 ft | 446 kts | 217° |
| 2026-05-01 10:14 | 49.56779 | 43.97892 | 38142 ft | 446 kts | 217° |
| 2026-05-01 10:14 | 49.51706 | 43.92397 | 38147 ft | 446 kts | 216° |
| 2026-05-01 10:15 | 49.46442 | 43.87330 | 38148 ft | 446 kts | 214° |
| 2026-05-01 10:15 | 49.41144 | 43.82340 | 38149 ft | 446 kts | 214° |
| 2026-05-01 10:16 | 49.35899 | 43.77384 | 38146 ft | 446 kts | 214° |
| 2026-05-01 10:17 | 49.28121 | 43.69652 | 38142 ft | 442 kts | 222° |
| 2026-05-01 10:17 | 49.21843 | 43.59431 | 38155 ft | 439 kts | 234° |
| 2026-05-01 10:18 | 49.16552 | 43.48056 | 38154 ft | 440 kts | 235° |
| 2026-05-01 10:19 | 49.13010 | 43.40444 | 38155 ft | 439 kts | 235° |
| 2026-05-01 10:19 | 49.09452 | 43.32863 | 38156 ft | 439 kts | 235° |
| 2026-05-01 10:20 | 49.04093 | 43.21515 | 38159 ft | 440 kts | 235° |
| 2026-05-01 10:20 | 49.00535 | 43.14009 | 38161 ft | 440 kts | 234° |
| 2026-05-01 10:21 | 48.95156 | 43.02695 | 38164 ft | 440 kts | 234° |
| 2026-05-01 10:22 | 48.89757 | 42.91387 | 38161 ft | 440 kts | 234° |
| 2026-05-01 10:23 | 48.84375 | 42.80160 | 38164 ft | 440 kts | 234° |
| 2026-05-01 10:23 | 48.78959 | 42.68906 | 38163 ft | 440 kts | 234° |
| 2026-05-01 10:24 | 48.71661 | 42.54080 | 38181 ft | 440 kts | 233° |
| 2026-05-01 10:25 | 48.64262 | 42.39303 | 38183 ft | 441 kts | 234° |
| 2026-05-01 10:26 | 48.60559 | 42.31918 | 38181 ft | 441 kts | 233° |
| 2026-05-01 10:27 | 48.53146 | 42.17248 | 38180 ft | 441 kts | 233° |
| 2026-05-01 10:28 | 48.47557 | 42.06239 | 38176 ft | 441 kts | 233° |
| 2026-05-01 10:28 | 48.43872 | 41.99004 | 37663 ft | 433 kts | 234° |
| 2026-05-01 10:28 | 48.42050 | 41.95433 | 37196 ft | 427 kts | 234° |
| 2026-05-01 10:29 | 48.38492 | 41.88473 | 36424 ft | 413 kts | 234° |
| 2026-05-01 10:29 | 48.36754 | 41.85077 | 36049 ft | 406 kts | 234° |
| 2026-05-01 10:30 | 48.33343 | 41.78463 | 35264 ft | 395 kts | 233° |
| 2026-05-01 10:30 | 48.29863 | 41.72231 | 34525 ft | 384 kts | 232° |
| 2026-05-01 10:31 | 48.26469 | 41.66262 | 33711 ft | 373 kts | 233° |
| 2026-05-01 10:31 | 48.23160 | 41.60401 | 32800 ft | 363 kts | 233° |
| 2026-05-01 10:32 | 48.19950 | 41.54704 | 32006 ft | 352 kts | 233° |
| 2026-05-01 10:32 | 48.18382 | 41.51921 | 31617 ft | 347 kts | 233° |
| 2026-05-01 10:32 | 48.15339 | 41.46529 | 30873 ft | 336 kts | 233° |
| 2026-05-01 10:33 | 48.12364 | 41.41267 | 30078 ft | 327 kts | 233° |
| 2026-05-01 10:33 | 48.09456 | 41.36133 | 29054 ft | 321 kts | 233° |
| 2026-05-01 10:34 | 48.08019 | 41.33594 | 28529 ft | 319 kts | 233° |
| 2026-05-01 10:34 | 48.06590 | 41.31075 | 28025 ft | 316 kts | 233° |
| 2026-05-01 10:34 | 48.05171 | 41.28575 | 27558 ft | 314 kts | 232° |
| 2026-05-01 10:35 | 48.02383 | 41.23682 | 26655 ft | 309 kts | 232° |
| 2026-05-01 10:35 | 48.00997 | 41.21252 | 26196 ft | 307 kts | 232° |
| 2026-05-01 10:35 | 47.99608 | 41.18820 | 25757 ft | 305 kts | 232° |
| 2026-05-01 10:35 | 47.98244 | 41.16433 | 25268 ft | 295 kts | 231° |
| 2026-05-01 10:36 | 47.95618 | 41.11843 | 23053 ft | 290 kts | 231° |
| 2026-05-01 10:36 | 47.94310 | 41.09558 | 21804 ft | 290 kts | 230° |
| 2026-05-01 10:36 | 47.93003 | 41.07275 | 20628 ft | 290 kts | 230° |
| 2026-05-01 10:37 | 47.91677 | 41.04963 | 19946 ft | 298 kts | 230° |
| 2026-05-01 10:37 | 47.89033 | 41.00360 | 19383 ft | 288 kts | 230° |
| 2026-05-01 10:37 | 47.87729 | 40.98092 | 18959 ft | 288 kts | 230° |
| 2026-05-01 10:38 | 47.86420 | 40.95816 | 18512 ft | 289 kts | 230° |
| 2026-05-01 10:38 | 47.85113 | 40.93545 | 18045 ft | 289 kts | 230° |
| 2026-05-01 10:38 | 47.83805 | 40.91277 | 17635 ft | 288 kts | 230° |
| 2026-05-01 10:38 | 47.82506 | 40.89026 | 17208 ft | 286 kts | 230° |
| 2026-05-01 10:39 | 47.81210 | 40.86781 | 16798 ft | 284 kts | 231° |
| 2026-05-01 10:39 | 47.80198 | 40.84280 | 16209 ft | 286 kts | 247° |
| 2026-05-01 10:39 | 47.79673 | 40.81451 | 15773 ft | 288 kts | 256° |
| 2026-05-01 10:39 | 47.79303 | 40.78536 | 15429 ft | 286 kts | 257° |
| 2026-05-01 10:40 | 47.78963 | 40.75633 | 15068 ft | 284 kts | 257° |
| 2026-05-01 10:40 | 47.78628 | 40.72742 | 14695 ft | 283 kts | 258° |
| 2026-05-01 10:40 | 47.78289 | 40.69864 | 14318 ft | 282 kts | 258° |
| 2026-05-01 10:40 | 47.77947 | 40.66990 | 13937 ft | 282 kts | 258° |
| 2026-05-01 10:41 | 47.77601 | 40.64127 | 13521 ft | 281 kts | 258° |
| 2026-05-01 10:41 | 47.77254 | 40.61272 | 13121 ft | 281 kts | 258° |
| 2026-05-01 10:41 | 47.76557 | 40.55608 | 12299 ft | 280 kts | 258° |
| 2026-05-01 10:42 | 47.76205 | 40.52760 | 11902 ft | 280 kts | 258° |
| 2026-05-01 10:42 | 47.75851 | 40.49914 | 11501 ft | 280 kts | 258° |
| 2026-05-01 10:42 | 47.75496 | 40.47065 | 11100 ft | 281 kts | 259° |
| 2026-05-01 10:42 | 47.75141 | 40.44218 | 10700 ft | 282 kts | 259° |
| 2026-05-01 10:43 | 47.74780 | 40.41342 | 10354 ft | 283 kts | 259° |
| 2026-05-01 10:43 | 47.74420 | 40.38473 | 10091 ft | 282 kts | 259° |
| 2026-05-01 10:43 | 47.74061 | 40.35612 | 9782 ft | 282 kts | 259° |
| 2026-05-01 10:43 | 47.73702 | 40.32752 | 9467 ft | 281 kts | 259° |
| 2026-05-01 10:44 | 47.73348 | 40.29939 | 9162 ft | 281 kts | 259° |
| 2026-05-01 10:44 | 47.72987 | 40.27086 | 8856 ft | 281 kts | 259° |
| 2026-05-01 10:44 | 47.72626 | 40.24238 | 8576 ft | 280 kts | 259° |
| 2026-05-01 10:44 | 47.72264 | 40.21398 | 8300 ft | 280 kts | 259° |
| 2026-05-01 10:45 | 47.71903 | 40.18559 | 8028 ft | 279 kts | 259° |
| 2026-05-01 10:45 | 47.71376 | 40.15825 | 7599 ft | 278 kts | 244° |
| 2026-05-01 10:45 | 47.70729 | 40.14164 | 7355 ft | 281 kts | 239° |
| 2026-05-01 10:45 | 47.69360 | 40.10895 | 7068 ft | 277 kts | 239° |
| 2026-05-01 10:46 | 47.68690 | 40.09285 | 6881 ft | 277 kts | 239° |
| 2026-05-01 10:46 | 47.67683 | 40.06844 | 6603 ft | 277 kts | 240° |
| 2026-05-01 10:46 | 47.66682 | 40.04405 | 6336 ft | 276 kts | 240° |
| 2026-05-01 10:46 | 47.65367 | 40.01184 | 6006 ft | 276 kts | 240° |
| 2026-05-01 10:47 | 47.64376 | 39.98754 | 5775 ft | 274 kts | 240° |
| 2026-05-01 10:47 | 47.63709 | 39.97121 | 5589 ft | 274 kts | 240° |
| 2026-05-01 10:47 | 47.62739 | 39.94741 | 5393 ft | 273 kts | 240° |
| 2026-05-01 10:47 | 47.61720 | 39.92371 | 5164 ft | 272 kts | 236° |
| 2026-05-01 10:48 | 47.60624 | 39.90129 | 5063 ft | 266 kts | 235° |
| 2026-05-01 10:48 | 47.59540 | 39.87946 | 5003 ft | 260 kts | 235° |
| 2026-05-01 10:48 | 47.58483 | 39.85801 | 4884 ft | 255 kts | 235° |
| 2026-05-01 10:48 | 47.57117 | 39.83011 | 4663 ft | 252 kts | 235° |
| 2026-05-01 10:49 | 47.56424 | 39.81594 | 4569 ft | 250 kts | 236° |
| 2026-05-01 10:49 | 47.55413 | 39.79522 | 4364 ft | 252 kts | 236° |
| 2026-05-01 10:49 | 47.54392 | 39.77432 | 4207 ft | 251 kts | 236° |
| 2026-05-01 10:49 | 47.53373 | 39.75344 | 3946 ft | 251 kts | 236° |
| 2026-05-01 10:50 | 47.52357 | 39.73269 | 3801 ft | 248 kts | 236° |
| 2026-05-01 10:50 | 47.51341 | 39.71192 | 3511 ft | 251 kts | 236° |
| 2026-05-01 10:50 | 47.50320 | 39.69128 | 3428 ft | 245 kts | 232° |
| 2026-05-01 10:50 | 47.48976 | 39.67641 | 3263 ft | 245 kts | 202° |
| 2026-05-01 10:51 | 47.47301 | 39.67381 | 3212 ft | 243 kts | 172° |
| 2026-05-01 10:51 | 47.45731 | 39.68229 | 3151 ft | 240 kts | 150° |
| 2026-05-01 10:51 | 47.44376 | 39.69577 | 3082 ft | 237 kts | 146° |
| 2026-05-01 10:51 | 47.43055 | 39.70997 | 2982 ft | 233 kts | 145° |
| 2026-05-01 10:52 | 47.41480 | 39.73085 | 2830 ft | 226 kts | 119° |
| 2026-05-01 10:52 | 47.41162 | 39.74530 | 2760 ft | 223 kts | 91° |
| 2026-05-01 10:52 | 47.41566 | 39.76614 | 2645 ft | 208 kts | 52° |
| 2026-05-01 10:52 | 47.42427 | 39.78255 | 2561 ft | 197 kts | 48° |
| 2026-05-01 10:53 | 47.43251 | 39.79804 | 2508 ft | 185 kts | 51° |
| 2026-05-01 10:53 | 47.43968 | 39.81265 | 2438 ft | 165 kts | 50° |
| 2026-05-01 10:53 | 47.44639 | 39.82599 | 2046 ft | 169 kts | 50° |
| 2026-05-01 10:53 | 47.45327 | 39.84013 | 1718 ft | 168 kts | 52° |
| 2026-05-01 10:54 | 47.45979 | 39.85434 | 1343 ft | 162 kts | 52° |
| 2026-05-01 10:54 | 47.46625 | 39.86748 | 1053 ft | 155 kts | 51° |
| 2026-05-01 10:54 | 47.47259 | 39.88033 | 755 ft | 155 kts | 53° |
| 2026-05-01 10:54 | 47.47864 | 39.89312 | 465 ft | 148 kts | 54° |
| 2026-05-01 10:55 | 47.48448 | 39.90507 | 336 ft | 134 kts | 54° |
| 2026-05-01 10:55 | 47.48941 | 39.91529 | 293 ft | 104 kts | 54° |
| 2026-05-01 10:55 | 47.49305 | 39.92281 | 300 ft | 87 kts | 54° |
| 2026-05-01 10:55 | 47.49584 | 39.92860 | 298 ft | 62 kts | 54° |
| 2026-05-01 10:56 | 47.49828 | 39.93362 | 299 ft | 56 kts | 54° |
| 2026-05-01 10:56 | 47.50012 | 39.93742 | 299 ft | 31 kts | 54° |
| 2026-05-01 10:56 | 47.50052 | 39.93877 | 298 ft | 10 kts | 109° |
| 2026-05-01 10:56 | 47.50002 | 39.93952 | 298 ft | 11 kts | 144° |
| 2026-05-01 10:57 | 47.49927 | 39.93972 | 295 ft | 12 kts | 205° |
| 2026-05-01 10:57 | 47.49872 | 39.93879 | 295 ft | 13 kts | 235° |
| 2026-05-01 10:57 | 47.49794 | 39.93721 | 295 ft | 32 kts | 233° |
| 2026-05-01 10:57 | 47.49660 | 39.93446 | 296 ft | 33 kts | 235° |
| 2026-05-01 10:58 | 47.49526 | 39.93177 | 298 ft | 32 kts | 237° |
| 2026-05-01 10:58 | 47.49398 | 39.92910 | 296 ft | 32 kts | 233° |
| 2026-05-01 10:58 | 47.49307 | 39.92720 | 297 ft | 13 kts | 235° |
| 2026-05-01 10:58 | 47.49236 | 39.92655 | 296 ft | 13 kts | 172° |
| 2026-05-01 10:59 | 47.49159 | 39.92729 | 296 ft | 14 kts | 144° |
| 2026-05-01 10:59 | 47.49082 | 39.92790 | 295 ft | 10 kts | 175° |
| 2026-05-01 10:59 | 47.49023 | 39.92814 | 296 ft | 9 kts | 147° |
| 2026-05-01 10:59 | 47.49004 | 39.92833 | 297 ft | 3 kts | 145° |
| 2026-05-01 11:00 | 47.48992 | 39.92845 | 297 ft | 0 kts | 145° |
| 2026-05-01 11:02 | 47.46661 | 39.86819 | 1042 ft | 155 kts | 51° |
| 2026-05-01 11:02 | 47.47291 | 39.88101 | 731 ft | 155 kts | 54° |
| 2026-05-01 11:02 | 47.47896 | 39.89378 | 459 ft | 148 kts | 54° |
| 2026-05-01 11:02 | 47.48470 | 39.90552 | 329 ft | 133 kts | 54° |
| 2026-05-01 11:03 | 47.48958 | 39.91565 | 297 ft | 102 kts | 54° |
| 2026-05-01 11:03 | 47.49318 | 39.92309 | 295 ft | 87 kts | 54° |